Time;durP1;ratioP1;P1;durP2;ratioP2;P2;SDS_P1;SDS_P2;PMS_P1;PMS_P2;Temp;Humidity;BMP_temperature;BMP_pressure;BME280_temperature;BME280_humidity;BME280_pressure;Samples;Min_cycle;Max_cycle;Signal;HPM_P1;HPM_P2
2022/03/26 00:01:24;;;;;;;29.70;22.48;;;7.90;93.90;;;;;;5040894;28;20022;-74
2022/03/26 00:03:50;;;;;;;32.42;23.08;;;7.80;94.00;;;;;;5050162;28;20017;-74
2022/03/26 00:06:15;;;;;;;31.20;22.35;;;7.80;93.90;;;;;;5030666;28;20071;-74
2022/03/26 00:08:41;;;;;;;31.75;22.10;;;7.90;93.70;;;;;;5041684;28;20060;-74
2022/03/26 00:11:06;;;;;;;31.98;23.92;;;8.10;93.50;;;;;;5041824;28;20116;-74
2022/03/26 00:13:32;;;;;;;33.58;22.60;;;7.90;94.00;;;;;;5033502;28;20105;-76
2022/03/26 00:15:57;;;;;;;31.50;21.15;;;7.90;93.90;;;;;;5029526;28;20121;-75
2022/03/26 00:18:23;;;;;;;32.63;22.65;;;8.20;93.30;;;;;;5029993;28;20399;-75
2022/03/26 00:20:48;;;;;;;30.92;22.05;;;8.10;93.50;;;;;;5039689;28;20510;-75
2022/03/26 00:23:14;;;;;;;34.55;22.23;;;8.00;93.70;;;;;;5041181;28;20100;-76
2022/03/26 00:25:40;;;;;;;35.78;23.05;;;7.90;93.70;;;;;;5045034;28;20025;-76
2022/03/26 00:28:06;;;;;;;28.67;21.15;;;7.90;93.50;;;;;;5040796;28;20032;-76
2022/03/26 00:30:31;;;;;;;34.20;22.05;;;7.80;94.30;;;;;;5039148;28;20021;-75
2022/03/26 00:32:57;;;;;;;32.38;22.30;;;7.60;94.70;;;;;;5047686;28;20030;-75
2022/03/26 00:35:22;;;;;;;32.85;23.00;;;7.50;94.60;;;;;;5049283;28;20030;-76
2022/03/26 00:37:48;;;;;;;31.52;21.90;;;7.60;94.60;;;;;;5035122;28;20464;-75
2022/03/26 00:40:13;;;;;;;32.38;22.35;;;7.60;94.60;;;;;;5033790;28;20071;-74
2022/03/26 00:42:39;;;;;;;33.65;22.13;;;7.50;94.70;;;;;;5034240;28;20060;-77
2022/03/26 00:45:06;;;;;;;30.55;21.40;;;7.50;94.80;;;;;;5039313;28;20048;-76
2022/03/26 00:47:32;;;;;;;31.63;24.00;;;7.50;94.70;;;;;;5027124;28;20021;-75
2022/03/26 00:49:57;;;;;;;33.53;24.70;;;6.80;96.00;;;;;;5045632;28;20021;-74
2022/03/26 00:52:23;;;;;;;35.78;26.25;;;5.70;98.10;;;;;;5018300;28;20439;-75
2022/03/26 00:54:49;;;;;;;35.55;24.42;;;5.60;98.90;;;;;;5031966;28;20032;-75
2022/03/26 00:57:16;;;;;;;35.42;25.33;;;5.70;99.60;;;;;;5033936;28;20379;-75
2022/03/26 00:59:42;;;;;;;34.58;25.50;;;5.70;99.50;;;;;;5030403;28;20025;-75
2022/03/26 01:02:08;;;;;;;36.25;24.75;;;5.40;99.90;;;;;;5046178;28;20537;-75
2022/03/26 01:04:33;;;;;;;31.60;23.73;;;5.50;99.90;;;;;;5046942;28;20029;-75
2022/03/26 01:06:58;;;;;;;34.47;25.05;;;5.70;99.90;;;;;;5037460;28;20485;-75
2022/03/26 01:09:24;;;;;;;36.58;25.27;;;5.80;99.90;;;;;;5045544;28;20025;-75
2022/03/26 01:11:50;;;;;;;33.17;24.85;;;5.50;99.90;;;;;;5033522;28;20026;-76
2022/03/26 01:14:15;;;;;;;33.45;23.55;;;5.40;99.90;;;;;;5039576;28;20018;-76
2022/03/26 01:16:41;;;;;;;35.63;25.15;;;5.20;99.90;;;;;;5047484;28;20025;-75
2022/03/26 01:19:07;;;;;;;30.35;24.35;;;5.20;99.90;;;;;;5031294;28;20037;-75
2022/03/26 01:21:32;;;;;;;34.15;24.73;;;5.20;99.90;;;;;;5044293;28;20079;-77
2022/03/26 01:23:58;;;;;;;34.50;24.95;;;5.30;99.90;;;;;;5044336;28;20033;-74
2022/03/26 01:26:24;;;;;;;33.50;25.35;;;5.30;99.90;;;;;;5025016;28;20026;-75
2022/03/26 01:28:50;;;;;;;34.67;25.50;;;5.20;99.90;;;;;;5026022;28;20028;-76
2022/03/26 01:31:19;;;;;;;35.10;24.27;;;4.90;99.90;;;;;;5019135;28;20387;-74
2022/03/26 01:33:46;;;;;;;33.47;25.40;;;4.90;99.90;;;;;;5019505;28;20096;-74
2022/03/26 01:36:12;;;;;;;35.72;24.90;;;4.90;99.90;;;;;;5025692;28;20480;-74
2022/03/26 01:38:37;;;;;;;34.08;24.30;;;4.80;99.90;;;;;;5012670;28;20045;-75
2022/03/26 01:41:03;;;;;;;29.75;23.48;;;4.90;99.90;;;;;;5018340;28;20033;-76
2022/03/26 01:43:28;;;;;;;35.22;25.27;;;4.70;99.90;;;;;;5019190;28;20021;-75
2022/03/26 01:45:54;;;;;;;35.13;24.67;;;4.60;99.90;;;;;;5032430;28;20026;-74
2022/03/26 01:48:19;;;;;;;40.83;26.85;;;4.40;99.90;;;;;;5031094;28;20037;-74
2022/03/26 01:50:45;;;;;;;34.05;24.77;;;4.50;99.90;;;;;;5012293;28;20084;-75
2022/03/26 01:53:10;;;;;;;37.15;27.48;;;4.60;99.90;;;;;;5025713;28;20029;-75
2022/03/26 01:55:36;;;;;;;34.33;25.77;;;4.50;99.90;;;;;;5024250;28;20025;-74
2022/03/26 01:58:02;;;;;;;35.50;26.15;;;4.30;99.90;;;;;;5024372;28;20034;-74
2022/03/26 02:00:28;;;;;;;34.35;25.98;;;4.10;99.90;;;;;;5019367;28;20025;-75
2022/03/26 02:02:54;;;;;;;37.92;25.70;;;4.10;99.90;;;;;;5032112;28;20048;-75
2022/03/26 02:05:20;;;;;;;36.92;26.20;;;4.10;99.90;;;;;;5031933;28;20443;-74
2022/03/26 02:07:47;;;;;;;35.30;25.23;;;4.10;99.90;;;;;;5032896;28;20040;-74
2022/03/26 02:10:15;;;;;;;33.60;25.65;;;4.10;99.90;;;;;;5019876;28;20017;-74
2022/03/26 02:12:42;;;;;;;33.80;26.27;;;3.90;99.90;;;;;;5018854;28;20169;-76
2022/03/26 02:15:09;;;;;;;33.47;26.33;;;4.10;99.90;;;;;;5022372;28;20117;-74
2022/03/26 02:17:35;;;;;;;36.17;25.55;;;3.90;99.90;;;;;;5025369;28;20018;-73
2022/03/26 02:20:03;;;;;;;34.78;26.55;;;4.00;99.90;;;;;;5020403;28;20040;-73
2022/03/26 02:22:29;;;;;;;42.28;26.23;;;4.10;99.90;;;;;;5016499;28;20422;-73
2022/03/26 02:24:55;;;;;;;36.55;26.23;;;4.10;99.90;;;;;;5020583;28;20021;-73
2022/03/26 02:27:22;;;;;;;35.78;26.73;;;4.10;99.90;;;;;;5017225;28;20025;-72
2022/03/26 02:29:49;;;;;;;33.03;26.10;;;4.10;99.90;;;;;;5023328;28;20119;-74
2022/03/26 02:32:17;;;;;;;35.63;25.85;;;3.90;99.90;;;;;;5025864;28;20113;-75
2022/03/26 02:34:42;;;;;;;36.50;26.30;;;3.90;99.90;;;;;;5021339;28;20029;-74
2022/03/26 02:37:08;;;;;;;38.47;27.45;;;3.50;99.90;;;;;;5014022;28;20034;-74
2022/03/26 02:39:33;;;;;;;36.75;26.13;;;3.60;99.90;;;;;;5023166;28;20534;-74
2022/03/26 02:41:59;;;;;;;35.50;26.95;;;3.70;99.90;;;;;;5011740;28;20041;-74
2022/03/26 02:44:24;;;;;;;34.97;26.67;;;3.60;99.90;;;;;;5020360;28;20097;-74
2022/03/26 02:46:50;;;;;;;38.78;27.02;;;3.50;99.90;;;;;;5018387;28;20030;-73
2022/03/26 02:49:16;;;;;;;34.58;26.48;;;3.60;99.90;;;;;;5023193;28;20026;-74
2022/03/26 02:51:42;;;;;;;37.33;27.23;;;3.50;99.90;;;;;;5011935;28;20057;-74
2022/03/26 02:54:18;;;;;;;36.17;26.40;;;3.50;99.90;;;;;;5018831;28;20032;-75
2022/03/26 02:56:48;;;;;;;36.38;28.15;;;3.50;99.90;;;;;;5018234;28;20029;-74
2022/03/26 02:59:14;;;;;;;39.78;27.23;;;3.40;99.90;;;;;;5021396;28;20423;-74
2022/03/26 03:01:40;;;;;;;34.63;25.85;;;3.30;99.90;;;;;;5027513;28;20534;-74
2022/03/26 03:04:05;;;;;;;37.33;28.20;;;3.20;99.90;;;;;;5031333;28;20030;-73
2022/03/26 03:06:31;;;;;;;36.00;26.80;;;3.20;99.90;;;;;;5021109;28;20059;-73
2022/03/26 03:08:57;;;;;;;39.47;27.77;;;3.40;99.90;;;;;;5021512;28;20029;-73
2022/03/26 03:11:23;;;;;;;35.30;26.48;;;3.40;99.90;;;;;;5023301;28;20045;-73
2022/03/26 03:13:49;;;;;;;37.28;26.83;;;3.40;99.90;;;;;;5021549;28;20045;-73
2022/03/26 03:16:14;;;;;;;38.17;27.58;;;3.50;99.90;;;;;;5031322;28;20437;-73
2022/03/26 03:18:40;;;;;;;37.78;27.90;;;3.30;99.90;;;;;;5033129;28;20025;-74
2022/03/26 03:21:06;;;;;;;37.22;27.13;;;3.10;99.90;;;;;;5030406;28;20022;-73
2022/03/26 03:23:31;;;;;;;39.58;27.90;;;3.20;99.90;;;;;;5025086;28;20107;-73
2022/03/26 03:25:57;;;;;;;37.60;28.75;;;3.30;99.90;;;;;;5021981;28;20057;-75
2022/03/26 03:28:23;;;;;;;35.00;27.02;;;3.40;99.90;;;;;;5025178;28;20026;-75
2022/03/26 03:30:49;;;;;;;38.45;28.45;;;3.40;99.90;;;;;;5027056;28;20528;-75
2022/03/26 03:33:14;;;;;;;40.25;27.42;;;3.60;99.90;;;;;;5023745;28;20032;-75
2022/03/26 03:35:40;;;;;;;38.67;28.13;;;3.70;99.90;;;;;;5021598;28;20445;-74
2022/03/26 03:38:06;;;;;;;38.03;28.90;;;3.70;99.90;;;;;;5023954;28;20029;-74
2022/03/26 03:40:31;;;;;;;35.85;27.33;;;3.80;99.90;;;;;;5028098;28;20113;-74
2022/03/26 03:42:57;;;;;;;40.05;28.23;;;3.60;99.90;;;;;;5024630;28;20048;-74
2022/03/26 03:45:22;;;;;;;37.22;27.50;;;3.70;99.90;;;;;;5017181;28;20033;-74
2022/03/26 03:47:48;;;;;;;38.95;27.77;;;3.60;99.90;;;;;;5024230;28;20068;-73
2022/03/26 03:50:15;;;;;;;36.88;27.25;;;3.50;99.90;;;;;;5017190;28;20029;-74
2022/03/26 03:52:40;;;;;;;42.25;28.75;;;3.50;99.90;;;;;;5022655;28;20115;-73
2022/03/26 03:55:07;;;;;;;39.90;29.92;;;3.70;99.90;;;;;;5030671;28;20463;-74
2022/03/26 03:57:33;;;;;;;42.60;29.95;;;3.50;99.90;;;;;;5024102;28;20017;-74
2022/03/26 03:59:58;;;;;;;42.20;29.80;;;3.30;99.90;;;;;;5021536;28;20057;-74
2022/03/26 04:02:24;;;;;;;40.95;29.83;;;3.30;99.90;;;;;;5034170;28;20053;-75
2022/03/26 04:04:50;;;;;;;38.85;27.60;;;3.10;99.90;;;;;;5019562;28;20041;-75
2022/03/26 04:07:16;;;;;;;39.03;27.83;;;3.20;99.90;;;;;;5024764;28;20065;-75
2022/03/26 04:09:41;;;;;;;40.35;28.20;;;3.60;99.90;;;;;;5027744;28;20026;-75
2022/03/26 04:12:07;;;;;;;40.55;27.48;;;3.70;99.90;;;;;;5023602;28;20030;-76
2022/03/26 04:14:35;;;;;;;40.95;28.50;;;3.80;99.90;;;;;;5018237;28;20065;-75
2022/03/26 04:17:01;;;;;;;42.28;29.15;;;3.80;99.90;;;;;;5014306;28;20056;-75
2022/03/26 04:19:27;;;;;;;40.15;27.83;;;3.70;99.90;;;;;;5026387;28;20108;-76
2022/03/26 04:21:54;;;;;;;40.50;28.17;;;3.70;99.90;;;;;;5023309;28;20018;-74
2022/03/26 04:24:20;;;;;;;38.50;27.17;;;3.60;99.90;;;;;;5020757;28;20482;-74
2022/03/26 04:26:46;;;;;;;39.53;28.48;;;3.70;99.90;;;;;;5024591;28;20037;-75
2022/03/26 04:29:11;;;;;;;40.65;29.73;;;3.70;99.90;;;;;;5029800;28;20034;-74
2022/03/26 04:31:37;;;;;;;38.92;28.98;;;3.60;99.90;;;;;;5022986;28;20377;-74
2022/03/26 04:34:02;;;;;;;38.38;27.58;;;3.50;99.90;;;;;;5026055;28;20449;-75
2022/03/26 04:36:29;;;;;;;42.47;31.08;;;3.70;99.90;;;;;;5021617;28;20030;-75
2022/03/26 04:38:59;;;;;;;43.88;36.25;;;3.50;99.90;;;;;;5017862;28;21472;-75
2022/03/26 04:41:25;;;;;;;44.90;34.67;;;3.50;99.90;;;;;;5023331;28;20038;-75
2022/03/26 04:43:51;;;;;;;37.95;28.73;;;3.50;99.90;;;;;;5020248;28;20390;-75
2022/03/26 04:46:16;;;;;;;40.00;29.33;;;3.30;99.90;;;;;;5023755;28;20034;-74
2022/03/26 04:48:42;;;;;;;41.15;29.65;;;3.20;99.90;;;;;;5027111;28;20424;-75
2022/03/26 04:51:08;;;;;;;41.78;30.27;;;3.20;99.90;;;;;;5025246;28;20030;-78
2022/03/26 04:53:34;;;;;;;44.53;32.10;;;3.20;99.90;;;;;;5032299;28;20109;-75
2022/03/26 04:55:59;;;;;;;41.28;31.35;;;3.30;99.90;;;;;;5024054;28;20029;-75
2022/03/26 04:58:24;;;;;;;42.95;31.13;;;3.00;99.90;;;;;;5018881;28;20387;-74
2022/03/26 05:00:50;;;;;;;43.03;31.02;;;2.80;99.90;;;;;;5031703;28;20116;-75
2022/03/26 05:03:15;;;;;;;39.67;28.85;;;3.00;99.90;;;;;;5029721;28;20022;-75
2022/03/26 05:05:41;;;;;;;41.78;29.65;;;3.10;99.90;;;;;;5023584;28;20034;-75
2022/03/26 05:08:07;;;;;;;43.20;30.73;;;2.80;99.90;;;;;;5017158;28;20057;-76
2022/03/26 05:10:33;;;;;;;41.63;29.67;;;2.90;99.90;;;;;;5023166;28;20621;-76
2022/03/26 05:12:58;;;;;;;44.03;32.47;;;3.30;99.90;;;;;;5020597;28;20025;-76
2022/03/26 05:15:29;;;;;;;43.97;30.48;;;3.00;99.90;;;;;;5023586;28;20032;-75
2022/03/26 05:17:58;;;;;;;42.38;30.35;;;3.00;99.90;;;;;;5030278;28;20028;-77
2022/03/26 05:20:25;;;;;;;40.65;31.00;;;2.70;99.90;;;;;;5022556;28;20025;-76
2022/03/26 05:22:51;;;;;;;43.72;30.70;;;2.60;99.90;;;;;;5026759;28;20029;-77
2022/03/26 05:25:18;;;;;;;44.17;31.73;;;2.60;99.90;;;;;;5024154;28;20108;-75
2022/03/26 05:27:52;;;;;;;41.28;30.23;;;2.40;99.90;;;;;;5028494;28;20033;-76
2022/03/26 05:30:19;;;;;;;40.58;29.38;;;2.50;99.90;;;;;;5024691;28;20479;-73
2022/03/26 05:32:45;;;;;;;45.80;30.98;;;2.70;99.90;;;;;;5032736;28;20109;-76
2022/03/26 05:35:13;;;;;;;40.95;30.48;;;2.90;99.90;;;;;;5020406;28;20034;-74
2022/03/26 05:37:46;;;;;;;45.45;30.67;;;3.20;99.90;;;;;;5026196;28;20349;-75
2022/03/26 05:40:16;;;;;;;46.88;31.15;;;3.40;99.90;;;;;;5012642;28;20109;-74
2022/03/26 05:42:42;;;;;;;42.38;30.10;;;3.30;99.90;;;;;;5024870;28;20025;-73
2022/03/26 05:45:08;;;;;;;42.58;30.92;;;3.30;99.90;;;;;;5024612;28;20044;-75
2022/03/26 05:47:35;;;;;;;66.45;51.67;;;3.50;99.90;;;;;;5020585;28;20029;-76
2022/03/26 05:50:02;;;;;;;49.35;37.63;;;3.60;99.90;;;;;;5018024;28;20029;-77
2022/03/26 05:52:28;;;;;;;43.10;31.75;;;3.30;99.90;;;;;;5024357;28;20403;-76
2022/03/26 05:54:53;;;;;;;43.75;33.80;;;2.90;99.90;;;;;;5012408;28;20018;-76
2022/03/26 05:57:19;;;;;;;42.25;32.25;;;2.90;99.90;;;;;;5012744;28;20034;-75
2022/03/26 05:59:45;;;;;;;43.28;32.13;;;2.90;99.90;;;;;;5025414;28;20071;-74
2022/03/26 06:02:12;;;;;;;41.42;29.88;;;2.90;99.90;;;;;;5031971;28;20090;-75
2022/03/26 06:04:38;;;;;;;43.97;31.20;;;3.30;99.90;;;;;;5017399;28;20364;-76
2022/03/26 06:07:04;;;;;;;40.28;30.15;;;3.70;99.90;;;;;;5020598;28;20017;-76
2022/03/26 06:09:29;;;;;;;39.95;29.77;;;3.80;99.90;;;;;;5030973;28;20065;-76
2022/03/26 06:11:56;;;;;;;42.53;29.33;;;3.90;99.90;;;;;;5020142;28;20099;-76
2022/03/26 06:14:22;;;;;;;44.13;29.90;;;3.80;99.90;;;;;;5016306;28;20049;-75
2022/03/26 06:16:47;;;;;;;40.17;30.10;;;3.80;99.90;;;;;;5018852;28;20064;-75
2022/03/26 06:19:14;;;;;;;37.13;28.63;;;3.90;99.90;;;;;;5017552;28;20029;-77
2022/03/26 06:21:40;;;;;;;39.10;29.50;;;4.00;99.90;;;;;;5018469;28;20021;-76
2022/03/26 06:24:06;;;;;;;42.28;30.20;;;4.20;99.90;;;;;;5018525;28;20091;-75
2022/03/26 06:26:31;;;;;;;43.60;31.02;;;4.20;99.90;;;;;;5024287;28;20373;-77
2022/03/26 06:28:57;;;;;;;41.08;30.00;;;4.30;99.90;;;;;;5025992;28;20029;-76
2022/03/26 06:31:23;;;;;;;41.28;30.38;;;4.40;99.90;;;;;;5018519;28;20026;-76
2022/03/26 06:33:49;;;;;;;39.83;30.10;;;4.30;99.90;;;;;;5030433;28;20033;-77
2022/03/26 06:36:15;;;;;;;47.05;30.63;;;4.50;99.90;;;;;;5018847;28;20025;-76
2022/03/26 06:38:41;;;;;;;40.15;29.75;;;4.50;99.90;;;;;;5019731;28;20041;-77
2022/03/26 06:41:11;;;;;;;39.60;28.92;;;4.70;99.90;;;;;;5024051;28;20037;-76
2022/03/26 06:43:38;;;;;;;41.75;29.80;;;4.70;99.90;;;;;;5025113;28;20022;-76
2022/03/26 06:46:04;;;;;;;47.00;31.13;;;4.80;99.90;;;;;;5020156;28;20119;-76
2022/03/26 06:48:30;;;;;;;46.40;32.45;;;4.80;99.90;;;;;;5018752;28;20080;-76
2022/03/26 06:50:56;;;;;;;39.08;29.50;;;4.70;99.90;;;;;;5022471;28;20407;-75
2022/03/26 06:53:22;;;;;;;42.50;30.75;;;4.90;99.90;;;;;;5026790;28;20025;-76
2022/03/26 06:55:47;;;;;;;42.90;29.85;;;5.00;99.90;;;;;;5023267;28;20438;-76
2022/03/26 06:58:13;;;;;;;40.83;30.27;;;5.10;99.90;;;;;;5029977;28;20060;-76
2022/03/26 07:00:38;;;;;;;45.42;32.55;;;5.20;99.90;;;;;;5024609;28;20021;-76
2022/03/26 07:03:04;;;;;;;40.60;29.92;;;5.30;99.90;;;;;;5032676;28;20143;-76
2022/03/26 07:05:29;;;;;;;42.25;29.27;;;5.30;99.90;;;;;;5023939;28;20566;-76
2022/03/26 07:07:55;;;;;;;43.33;29.30;;;5.30;99.90;;;;;;5022122;28;20088;-76
2022/03/26 07:10:21;;;;;;;39.03;30.30;;;5.50;99.90;;;;;;5025496;28;20021;-76
2022/03/26 07:12:47;;;;;;;41.63;30.42;;;5.60;99.90;;;;;;5027523;28;20487;-76
2022/03/26 07:15:12;;;;;;;39.92;29.33;;;5.70;99.90;;;;;;5014370;28;20091;-75
2022/03/26 07:17:39;;;;;;;45.72;31.00;;;5.80;99.90;;;;;;5028951;28;20030;-75
2022/03/26 07:20:05;;;;;;;42.13;29.67;;;5.70;99.90;;;;;;5022541;28;20472;-76
2022/03/26 07:22:31;;;;;;;46.00;31.10;;;5.90;99.90;;;;;;5020829;28;20120;-76
2022/03/26 07:24:57;;;;;;;43.05;31.13;;;6.10;99.90;;;;;;5025853;28;20109;-75
2022/03/26 07:27:22;;;;;;;41.05;28.95;;;6.10;99.90;;;;;;5027767;28;20026;-76
2022/03/26 07:29:48;;;;;;;44.90;30.27;;;6.20;99.90;;;;;;5023657;28;20030;-76
2022/03/26 07:32:15;;;;;;;44.45;31.05;;;6.30;99.90;;;;;;5022194;28;20475;-76
2022/03/26 07:34:41;;;;;;;40.03;30.83;;;6.40;99.90;;;;;;5027101;28;20400;-76
2022/03/26 07:37:06;;;;;;;44.75;32.65;;;6.50;99.90;;;;;;5030561;28;20025;-76
2022/03/26 07:39:32;;;;;;;43.78;31.77;;;6.70;99.90;;;;;;5027009;28;20096;-76
2022/03/26 07:41:58;;;;;;;42.30;31.33;;;6.80;99.90;;;;;;5030064;28;20034;-75
2022/03/26 07:44:23;;;;;;;45.03;31.75;;;6.90;99.90;;;;;;5027538;28;20427;-75
2022/03/26 07:46:49;;;;;;;44.42;29.92;;;7.10;99.90;;;;;;5014911;28;20030;-70
2022/03/26 07:49:14;;;;;;;45.00;30.90;;;7.10;99.90;;;;;;5015143;28;20025;-76
2022/03/26 07:51:40;;;;;;;42.42;31.02;;;7.20;99.90;;;;;;5028238;28;20029;-76
2022/03/26 07:54:05;;;;;;;44.30;31.77;;;7.30;99.90;;;;;;5024966;28;20483;-75
2022/03/26 07:56:31;;;;;;;42.95;31.65;;;7.40;99.90;;;;;;5022304;28;20104;-75
2022/03/26 07:59:00;;;;;;;44.58;32.20;;;7.50;99.90;;;;;;5026436;28;20033;-76
2022/03/26 08:01:25;;;;;;;44.05;30.55;;;7.60;99.90;;;;;;5028522;28;20026;-76
2022/03/26 08:03:54;;;;;;;44.90;31.70;;;7.60;99.90;;;;;;5033769;28;20475;-76
2022/03/26 08:06:21;;;;;;;40.80;30.10;;;7.80;99.90;;;;;;5019836;28;20036;-76
2022/03/26 08:08:47;;;;;;;40.45;29.90;;;8.00;99.90;;;;;;5025367;28;20025;-76
2022/03/26 08:11:12;;;;;;;44.45;31.83;;;8.10;99.90;;;;;;5026313;28;20549;-76
2022/03/26 08:13:38;;;;;;;43.05;30.35;;;8.30;99.90;;;;;;5023335;28;20487;-76
2022/03/26 08:16:03;;;;;;;39.75;30.42;;;8.50;99.90;;;;;;5020637;28;20080;-76
2022/03/26 08:18:29;;;;;;;40.28;30.30;;;8.60;99.90;;;;;;5024187;28;20480;-76
2022/03/26 08:20:55;;;;;;;45.42;29.58;;;8.60;99.90;;;;;;5027179;28;20017;-76
2022/03/26 08:23:20;;;;;;;38.78;28.90;;;8.80;99.90;;;;;;5021636;28;20383;-75
2022/03/26 08:28:30;;;;;;;40.67;29.73;;;9.10;99.90;;;;;;5023436;28;20597;-76
2022/03/26 08:30:55;;;;;;;41.85;30.35;;;9.30;99.90;;;;;;5025724;28;20029;-76
2022/03/26 08:33:21;;;;;;;38.95;27.95;;;9.40;99.90;;;;;;5024818;28;20543;-75
2022/03/26 08:35:46;;;;;;;42.20;29.20;;;9.60;99.90;;;;;;5028373;28;20057;-75
2022/03/26 08:38:12;;;;;;;40.88;28.40;;;9.60;99.90;;;;;;5024621;28;20113;-76
2022/03/26 08:40:38;;;;;;;36.45;28.13;;;9.70;99.90;;;;;;5020039;28;20117;-75
2022/03/26 08:43:06;;;;;;;40.75;28.63;;;9.70;99.90;;;;;;5023172;28;20016;-76
2022/03/26 08:45:31;;;;;;;48.78;29.40;;;9.90;99.90;;;;;;5026948;28;20026;-75
2022/03/26 08:47:57;;;;;;;41.92;29.60;;;10.00;99.90;;;;;;5026183;28;20373;-75
2022/03/26 08:50:24;;;;;;;41.28;28.35;;;10.20;99.90;;;;;;5018755;28;20471;-75
2022/03/26 08:52:50;;;;;;;41.35;28.90;;;10.30;99.90;;;;;;5021754;28;20159;-75
2022/03/26 08:55:17;;;;;;;44.75;29.25;;;10.40;99.90;;;;;;5026817;28;20475;-72
2022/03/26 08:57:43;;;;;;;41.33;27.42;;;10.50;99.90;;;;;;5024456;28;20029;-74
2022/03/26 09:00:10;;;;;;;43.63;28.50;;;10.60;99.90;;;;;;5020943;28;20026;-74
2022/03/26 09:02:37;;;;;;;42.35;28.67;;;10.80;99.90;;;;;;5033401;28;20025;-75
2022/03/26 09:05:06;;;;;;;41.53;29.70;;;10.90;99.90;;;;;;5028536;28;20022;-74
2022/03/26 09:07:32;;;;;;;43.42;27.45;;;10.90;99.90;;;;;;5012758;28;20026;-75
2022/03/26 09:09:58;;;;;;;44.05;30.27;;;11.20;99.90;;;;;;5032409;28;20120;-75
2022/03/26 09:12:23;;;;;;;42.78;28.73;;;11.10;99.90;;;;;;5033583;28;20393;-74
2022/03/26 09:14:49;;;;;;;40.63;27.98;;;11.40;99.90;;;;;;5021474;28;20021;-79
2022/03/26 09:17:14;;;;;;;39.90;27.50;;;11.50;99.90;;;;;;5021293;28;20034;-75
2022/03/26 09:19:40;;;;;;;42.55;27.42;;;11.60;99.90;;;;;;5018765;28;20067;-75
2022/03/26 09:22:05;;;;;;;42.28;27.15;;;11.70;99.90;;;;;;5020955;28;20467;-75
2022/03/26 09:24:31;;;;;;;41.78;27.75;;;11.70;99.90;;;;;;5026512;28;20078;-75
2022/03/26 09:26:56;;;;;;;41.38;27.23;;;11.80;99.90;;;;;;5025263;28;20143;-75
2022/03/26 09:29:22;;;;;;;41.28;27.50;;;11.70;99.90;;;;;;5019810;28;20029;-76
2022/03/26 09:31:47;;;;;;;38.70;27.27;;;11.80;99.90;;;;;;5020732;28;20030;-75
2022/03/26 09:34:13;;;;;;;44.10;28.23;;;11.90;99.90;;;;;;5026290;28;20026;-75
2022/03/26 09:36:39;;;;;;;38.50;25.88;;;11.70;99.90;;;;;;5025107;28;20029;-75
2022/03/26 09:39:05;;;;;;;40.42;26.17;;;11.90;99.90;;;;;;5019327;28;20021;-75
2022/03/26 09:41:32;;;;;;;42.30;25.58;;;12.30;99.90;;;;;;5020704;28;20494;-75
2022/03/26 09:43:58;;;;;;;35.88;23.42;;;12.20;99.90;;;;;;5025841;28;20472;-76
2022/03/26 09:46:24;;;;;;;36.05;23.48;;;12.50;99.90;;;;;;5025299;28;20406;-76
2022/03/26 09:48:50;;;;;;;35.83;21.92;;;12.30;99.90;;;;;;5030965;28;20025;-76
2022/03/26 09:51:21;;;;;;;33.45;22.13;;;12.40;99.90;;;;;;5019502;28;20040;-76
2022/03/26 09:53:52;;;;;;;34.85;22.27;;;12.60;99.90;;;;;;5019142;28;20036;-76
2022/03/26 09:56:18;;;;;;;31.17;19.45;;;12.70;99.90;;;;;;5032196;28;20032;-76
2022/03/26 09:58:44;;;;;;;35.78;21.77;;;12.70;99.90;;;;;;5032301;28;20017;-76
2022/03/26 10:01:10;;;;;;;33.58;21.90;;;12.70;99.90;;;;;;5030633;28;20034;-76
2022/03/26 10:03:39;;;;;;;33.13;19.23;;;13.00;99.90;;;;;;5025924;28;20030;-76
2022/03/26 10:06:07;;;;;;;36.72;23.27;;;13.00;99.90;;;;;;5028335;28;20021;-76
2022/03/26 10:08:36;;;;;;;30.13;19.00;;;13.10;99.90;;;;;;5013706;28;20041;-76
2022/03/26 10:11:03;;;;;;;26.73;17.33;;;13.10;99.90;;;;;;5026781;28;20372;-75
2022/03/26 10:13:40;;;;;;;25.25;16.73;;;13.20;99.90;;;;;;5021190;28;20025;-75
2022/03/26 10:16:10;;;;;;;28.02;16.70;;;13.20;99.90;;;;;;5030494;28;20174;-75
2022/03/26 10:18:38;;;;;;;29.63;16.80;;;13.20;99.90;;;;;;5024236;28;20030;-76
2022/03/26 10:21:07;;;;;;;24.50;15.00;;;13.40;99.90;;;;;;5025388;28;20021;-75
2022/03/26 10:23:32;;;;;;;25.13;14.55;;;13.30;99.90;;;;;;5025454;28;20022;-76
2022/03/26 10:26:08;;;;;;;23.10;14.63;;;13.30;99.90;;;;;;5028794;28;20087;-76
2022/03/26 10:28:34;;;;;;;28.88;16.27;;;13.50;99.90;;;;;;5031583;28;20037;-75
2022/03/26 10:34:12;;;;;;;28.45;16.08;;;13.60;99.90;;;;;;5029904;28;20060;-75
2022/03/26 10:36:40;;;;;;;30.00;19.00;;;13.60;99.90;;;;;;5022997;28;20034;-76
2022/03/26 10:39:22;;;;;;;30.45;17.08;;;13.80;99.90;;;;;;5018454;28;20045;-75
2022/03/26 10:41:49;;;;;;;26.77;17.60;;;14.00;99.90;;;;;;5016432;28;20034;-76
2022/03/26 10:44:16;;;;;;;33.47;17.42;;;14.00;99.90;;;;;;5011837;28;20025;-76
2022/03/26 10:46:44;;;;;;;28.85;17.98;;;13.80;99.90;;;;;;5012377;28;20030;-75
2022/03/26 10:49:10;;;;;;;26.00;16.75;;;13.80;99.90;;;;;;5024504;28;20045;-75
2022/03/26 10:51:37;;;;;;;25.17;15.35;;;13.90;99.90;;;;;;5024604;28;20021;-76
2022/03/26 10:54:12;;;;;;;25.23;15.18;;;14.00;99.90;;;;;;5019407;28;20104;-76
2022/03/26 10:56:38;;;;;;;24.63;14.95;;;14.20;99.90;;;;;;5018329;28;20480;-75
2022/03/26 10:59:04;;;;;;;23.35;15.20;;;14.30;99.90;;;;;;5023096;28;20030;-76
2022/03/26 11:01:30;;;;;;;25.75;15.95;;;14.50;99.90;;;;;;5027442;28;20032;-76
2022/03/26 11:03:56;;;;;;;24.10;15.00;;;14.40;99.50;;;;;;5022379;28;20103;-75
2022/03/26 11:06:25;;;;;;;26.55;16.08;;;14.30;99.70;;;;;;5026412;28;21471;-75
2022/03/26 11:08:59;;;;;;;23.83;15.60;;;14.40;98.80;;;;;;5021904;28;20024;-74
2022/03/26 11:11:27;;;;;;;27.75;15.55;;;14.40;99.30;;;;;;5024713;28;20026;-74
2022/03/26 11:14:02;;;;;;;23.05;15.27;;;14.60;99.00;;;;;;5022734;28;20017;-75
2022/03/26 11:16:40;;;;;;;26.67;14.38;;;14.60;98.50;;;;;;5014051;28;20022;-75
2022/03/26 11:19:26;;;;;;;26.42;14.60;;;14.50;97.60;;;;;;5013541;28;20077;-74
2022/03/26 11:22:19;;;;;;;23.65;15.68;;;14.70;98.30;;;;;;5020912;28;20080;-74
2022/03/26 11:24:50;;;;;;;26.67;15.43;;;14.90;97.40;;;;;;5019279;28;20430;-75
2022/03/26 11:27:16;;;;;;;23.15;15.23;;;14.80;97.00;;;;;;5028512;28;20033;-75
2022/03/26 11:29:53;;;;;;;26.85;15.05;;;14.80;97.50;;;;;;5011713;28;20029;-75
2022/03/26 11:32:24;;;;;;;24.35;14.63;;;14.90;97.60;;;;;;5025062;28;20105;-74
2022/03/26 11:35:00;;;;;;;25.13;15.93;;;15.10;97.20;;;;;;5012008;28;20432;-74
2022/03/26 11:37:26;;;;;;;28.15;15.43;;;15.00;96.90;;;;;;5016539;28;20025;-74
2022/03/26 11:39:53;;;;;;;24.80;16.00;;;15.10;96.60;;;;;;5021904;28;20045;-75
2022/03/26 11:42:33;;;;;;;26.33;16.42;;;15.40;96.90;;;;;;5019646;28;20018;-74
2022/03/26 11:51:16;;;;;;;25.88;15.45;;;15.20;96.10;;;;;;5023471;28;20031;-75
2022/03/26 11:53:44;;;;;;;26.73;15.68;;;15.20;95.60;;;;;;5034486;28;20075;-76
2022/03/26 11:56:31;;;;;;;27.85;15.55;;;15.50;96.00;;;;;;5022429;28;20472;-76
2022/03/26 11:59:05;;;;;;;25.70;15.68;;;16.00;95.50;;;;;;5022886;28;20049;-76
2022/03/26 12:01:48;;;;;;;24.80;14.63;;;16.30;95.30;;;;;;5031484;28;20549;-76
2022/03/26 12:04:29;;;;;;;23.92;14.30;;;17.30;95.10;;;;;;5026258;28;20025;-76
2022/03/26 12:06:57;;;;;;;25.15;13.57;;;18.10;93.10;;;;;;5034498;28;20022;-75
2022/03/26 12:09:38;;;;;;;25.13;12.82;;;18.60;92.40;;;;;;5019664;28;20030;-75
2022/03/26 12:12:16;;;;;;;24.00;14.23;;;18.60;90.50;;;;;;5023209;28;20111;-76
2022/03/26 12:15:08;;;;;;;24.98;14.25;;;18.50;89.70;;;;;;5032917;28;20017;-76
2022/03/26 12:18:12;;;;;;;23.02;13.73;;;18.90;89.60;;;;;;5022295;28;20113;-76
2022/03/26 12:20:43;;;;;;;24.88;14.77;;;18.90;87.60;;;;;;5040011;28;20503;-76
2022/03/26 12:23:13;;;;;;;22.10;13.68;;;19.40;86.70;;;;;;5022533;28;20033;-77
2022/03/26 12:25:39;;;;;;;23.13;14.30;;;19.10;87.60;;;;;;5024572;28;20096;-76
2022/03/26 12:28:05;;;;;;;24.65;14.98;;;19.80;87.10;;;;;;5034957;28;20514;-77
2022/03/26 12:30:31;;;;;;;26.02;14.55;;;19.20;85.50;;;;;;5034821;28;20076;-76
2022/03/26 12:32:59;;;;;;;24.50;14.20;;;19.40;85.70;;;;;;5026683;28;20029;-76
2022/03/26 12:35:26;;;;;;;23.02;13.60;;;19.50;83.70;;;;;;5026150;28;20029;-77
2022/03/26 12:37:52;;;;;;;22.70;13.50;;;19.90;82.10;;;;;;5014414;28;20095;-75
2022/03/26 12:40:19;;;;;;;24.15;14.93;;;20.40;83.00;;;;;;5015322;28;20531;-75
2022/03/26 12:42:54;;;;;;;24.88;14.13;;;20.10;80.20;;;;;;5025923;28;20057;-75
2022/03/26 12:45:22;;;;;;;27.20;13.98;;;20.50;80.60;;;;;;5028910;28;20034;-76